KBNO/BNO METAR and TAF weather

Enter ICAO airport designator
Station Type Date Time Source
KBNO METAR 2020/05/30 04:53 UTC NOAA

KBNO 300453Z AUTO 05005KT 10SM CLR 19/10 A2989 RMK AO2 SLP082 T01890100


Station Type Date Time Source
KBNO Decoded METAR 2020/05/30 04:53 UTC NOAA

BURNS MUNICIPAL AIRPORT, OR, United States (KBNO) 43-36N 118-57W 1264M
May 30, 2020 - 12:53 AM EDT / 2020.05.30 0453 UTC
Wind: from the NE (050 degrees) at 6 MPH (5 KT):0
Visibility: 10 mile(s):0
Sky conditions: clear
Temperature: 66.0 F (18.9 C)
Dew Point: 50.0 F (10.0 C)
Relative Humidity: 56%
Pressure (altimeter): 29.89 in. Hg (1012 hPa)
ob: KBNO 300453Z AUTO 05005KT 10SM CLR 19/10 A2989 RMK AO2 SLP082 T01890100
cycle: 5

Station Type Date Time Source
KBNO TAF 2020/05/30 06:40 UTC NOAA

TAF KBNO 300538Z 3006/3106 28006KT P6SM BKN200
FM301000 29006KT P6SM VCSH BKN100
FM301500 11013G23KT P6SM SCT150
FM301900 18018G28KT P6SM BKN150
FM310200 27012G20KT P6SM SCT150

Example: see airport list